Terminal Aerodrome Forecast
Issued by NWS

Home | Current Version | Previous Version | Text Only | Print | Product List | Glossary On
Versions: 1 2 3 4 5 6 7 8 9 10 11 12 13
516
FTUS42 KMLB 221541 AAA
TAFLEE
TAF AMD
KLEE 221541Z 2216/2312 20012G20KT P6SM SCT015 BKN030
      TEMPO 2216/2218 BKN015
     FM221900 21018G28KT P6SM VCTS BKN035CB
      TEMPO 2221/2223 25020G40KT 2SM +TSRA
     FM230000 23012G18KT P6SM -RA VCTS BKN035CB
     FM230400 22015KT P6SM BKN035=

USA.gov is the U.S. government's official web portal to all federal, state and local government web resources and services.